Latest Weather Observations for Wiluna Airport

IDW60801

Issued at 7:23 am WST Wednesday 18 September 2019 (issued every 10 minutes, with the page automatically refreshed every 10 minutes)

About weather observations | Map of weather stations | Latest weather observations for WA | Other Formats
Station Details ID: 013044 Name: WILUNA AERO Lat: -26.63 Lon: 120.22 Height: 502.4 m
Data from the previous 72 hours. | See also: Recent months at Wiluna Airport
Date/Time
WST
Temp
°C
App
Temp
°C
Dew
Point
°C
Rel
Hum
%
Delta-T
°C
Wind Press
QNH
hPa
Press
MSL
hPa
Rain since
9am
mm
Dir  Spd
km/h
Gust
km/h
Spd
kts
Gust
kts
18/07:00am 16.9 12.9 -2.2 27 8.1 WSW 9 11 5 6 1018.0 1016.5 0.0
18/06:30am 13.4 9.1 -4.7 28 7.0 WSW 9 11 5 6 1017.9 1016.4 0.0
18/06:00am 12.1 7.7 -5.8 28 6.6 WSW 9 13 5 7 1017.7 1016.2 0.0
18/05:30am 12.7 8.4 -5.3 28 6.8 WSW 9 11 5 6 1017.6 1016.1 0.0
18/05:00am 13.1 10.5 -5.4 27 7.0 CALM 0 0 0 0 1017.6 1016.1 0.0
18/04:30am 14.0 11.4 -5.2 26 7.4 CALM 0 0 0 0 1017.5 1016.0 0.0
18/04:00am 14.3 10.5 -6.0 24 7.7 WSW 6 7 3 4 1017.4 1015.9 0.0
18/03:30am 16.0 12.2 -5.1 23 8.3 WSW 6 7 3 4 1017.4 1015.9 0.0
18/03:00am 18.9 14.6 -4.5 20 9.6 WSW 9 11 5 6 1017.3 1015.8 0.0
18/02:30am 20.0 15.0 -4.3 19 10.1 WSW 13 15 7 8 1017.4 1015.9 0.0
18/02:00am 20.6 16.0 -4.5 18 10.5 WSW 11 15 6 8 1017.3 1015.8 0.0
18/01:30am 21.1 16.4 -4.9 17 10.8 WSW 11 17 6 9 1017.5 1016.0 0.0
18/01:00am 22.2 16.8 -4.8 16 11.4 WSW 15 20 8 11 1017.4 1015.9 0.0
18/12:30am 23.2 17.8 -4.8 15 11.9 WSW 15 22 8 12 1017.4 1015.9 0.0
18/12:00am 23.9 18.0 -5.2 14 12.3 WSW 17 22 9 12 1017.4 1015.9 0.0
 
Date/Time
WST
Temp
°C
App
Temp
°C
Dew
Point
°C
Rel
Hum
%
Delta-T
°C
Wind Press
QNH
hPa
Press
MSL
hPa
Rain since
9am
mm
Dir  Spd
km/h
Gust
km/h
Spd
kts
Gust
kts
17/11:30pm 22.9 17.7 -6.0 14 12.0 WSW 13 17 7 9 1017.6 1016.1 0.0
17/11:00pm 23.3 18.1 -6.6 13 12.3 W 13 17 7 9 1017.7 1016.2 0.0
17/10:30pm 23.6 18.3 -7.4 12 12.6 WSW 13 19 7 10 1017.6 1016.1 0.0
17/10:00pm 23.7 18.4 -7.4 12 12.6 W 13 17 7 9 1017.8 1016.3 0.0
17/09:30pm 22.9 18.0 -6.9 13 12.1 W 11 13 6 7 1017.8 1016.3 0.0
17/09:00pm 23.4 18.6 -6.5 13 12.3 W 11 13 6 7 1017.6 1016.1 0.0
17/08:30pm 23.9 19.4 -7.2 12 12.7 WNW 9 13 5 7 1017.4 1015.9 0.0
17/08:00pm 24.7 19.5 -6.6 12 13.0 W 13 15 7 8 1017.0 1015.5 0.0
17/07:30pm 26.4 21.5 -7.6 10 14.1 W 11 11 6 6 1016.5 1014.9 0.0
17/07:00pm 28.6 23.7 -7.3 9 15.3 W 11 15 6 8 1016.2 1014.7 0.0
17/06:30pm 30.0 24.3 -7.8 8 16.2 WNW 15 20 8 11 1015.7 1014.2 0.0
17/06:00pm 31.0 24.6 -7.1 8 16.6 WNW 19 26 10 14 1015.3 1013.8 0.0
17/05:30pm 32.2 25.5 -7.9 7 17.4 WNW 20 33 11 18 1014.8 1013.2 0.0
17/05:00pm 33.2 25.6 -9.2 6 18.2 NW 24 32 13 17 1014.5 1012.9 0.0
17/04:30pm 33.8 26.7 -8.7 6 18.5 WNW 22 37 12 20 1014.2 1012.7 0.0
17/04:00pm 34.2 26.3 -8.5 6 18.7 WNW 26 39 14 21 1013.8 1012.3 0.0
17/03:30pm 34.4 26.0 -10.6 5 19.1 WNW 28 41 15 22 1013.9 1012.4 0.0
17/03:00pm 34.2 26.5 -10.8 5 19.0 WNW 24 39 13 21 1013.8 1012.3 0.0
17/02:30pm 35.1 27.9 -10.1 5 19.4 NW 22 37 12 20 1013.6 1012.1 0.0
17/02:09pm 34.5 25.3 -10.6 5 19.1 WNW 32 54 17 29 1013.8 1012.3 0.0
17/02:00pm 35.4 27.0 -9.9 5 19.6 NW 28 48 15 26 1013.9 1012.4 0.0
17/01:30pm 34.6 26.4 -8.2 6 18.9 NW 28 46 15 25 1013.9 1012.4 0.0
17/01:00pm 33.9 26.2 -11.0 5 18.8 NW 24 35 13 19 1014.6 1013.0 0.0
17/12:30pm 33.3 26.1 -9.1 6 18.2 W 22 35 12 19 1015.1 1013.6 0.0
17/12:24pm 33.6 24.9 -8.9 6 18.4 W 30 50 16 27 1015.3 1013.8 0.0
17/12:19pm 34.6 26.9 -10.5 5 19.2 W 24 50 13 27 1015.1 1013.6 0.0
17/12:00pm 33.7 26.6 -8.8 6 18.4 W 22 32 12 17 1015.5 1014.0 0.0
17/11:30am 33.6 27.4 -8.9 6 18.4 W 17 30 9 16 1015.9 1014.4 0.0
17/11:00am 33.1 26.6 -5.5 8 17.6 WNW 20 26 11 14 1016.2 1014.7 0.0
17/10:30am 31.8 25.4 -6.5 8 17.0 NW 19 28 10 15 1016.6 1015.0 0.0
17/10:00am 30.7 24.4 -4.4 10 16.0 NW 20 28 11 15 1016.9 1015.4 0.0
17/09:30am 29.5 23.8 -4.0 11 15.2 NNW 17 24 9 13 1017.0 1015.5 0.0
17/09:00am 28.2 22.7 -1.8 14 14.0 N 17 28 9 15 1017.0 1015.5 0.0
17/08:30am 26.4 20.8 0.9 19 12.4 N 20 26 11 14 1017.0 1015.5 0.0
17/08:00am 23.8 21.0 3.2 26 10.2 ESE 7 15 4 8 1017.2 1015.7 0.0
17/07:59am 23.5 20.7 3.4 27 10.0 ESE 7 15 4 8 1017.1 1015.6 0.0
17/07:30am 18.5 15.8 2.8 35 7.4 SE 6 9 3 5 1017.2 1015.7 0.0
17/07:00am 16.1 13.5 3.2 42 6.0 SE 6 7 3 4 1016.5 1014.9 0.0
17/06:30am 13.9 11.4 3.9 51 4.7 SE 6 9 3 5 1016.0 1014.5 0.0
17/06:00am 13.5 10.8 3.6 51 4.6 SE 7 9 4 5 1015.8 1014.3 0.0
17/05:30am 13.8 10.3 3.6 50 4.7 SE 11 13 6 7 1015.7 1014.2 0.0
17/05:00am 14.1 11.3 3.3 48 5.0 SE 7 9 4 5 1015.6 1014.1 0.0
17/04:30am 14.7 10.8 3.5 47 5.2 SE 13 13 7 7 1015.6 1014.1 0.0
17/04:00am 15.3 11.0 3.5 45 5.5 SE 15 17 8 9 1015.4 1013.9 0.0
17/03:30am 15.8 11.9 3.6 44 5.8 SE 13 15 7 8 1015.4 1013.9 0.0
17/03:00am 15.9 12.3 3.0 42 6.0 SE 11 13 6 7 1015.4 1013.9 0.0
17/02:30am 16.4 12.8 2.8 40 6.3 SE 11 15 6 8 1015.4 1013.9 0.0
17/02:00am 16.9 13.8 3.6 41 6.3 SE 9 11 5 6 1015.8 1014.3 0.0
17/01:30am 17.6 14.4 3.1 38 6.9 SE 9 11 5 6 1015.9 1014.4 0.0
17/01:00am 18.1 15.2 2.8 36 7.2 SE 7 13 4 7 1015.9 1014.4 0.0
17/12:30am 18.6 15.3 2.4 34 7.6 SE 9 11 5 6 1016.2 1014.7 0.0
17/12:00am 19.1 15.3 2.0 32 8.0 SE 11 15 6 8 1016.6 1015.0 0.0
 
Date/Time
WST
Temp
°C
App
Temp
°C
Dew
Point
°C
Rel
Hum
%
Delta-T
°C
Wind Press
QNH
hPa
Press
MSL
hPa
Rain since
9am
mm
Dir  Spd
km/h
Gust
km/h
Spd
kts
Gust
kts
16/11:30pm 20.0 15.5 1.9 30 8.5 SE 15 17 8 9 1016.8 1015.2 0.0
16/11:00pm 21.0 16.8 1.8 28 9.1 ESE 13 15 7 8 1016.8 1015.2 0.0
16/10:30pm 21.6 17.4 1.8 27 9.4 SE 13 17 7 9 1017.0 1015.5 0.0
16/10:00pm 22.4 17.8 1.4 25 10.0 SE 15 19 8 10 1017.2 1015.7 0.0
16/09:30pm 23.3 18.0 1.6 24 10.4 SE 19 24 10 13 1017.1 1015.6 0.0
16/09:00pm 24.4 18.4 1.3 22 11.1 SE 22 28 12 15 1016.8 1015.2 0.0
16/08:30pm 25.4 19.2 2.2 22 11.4 SE 24 30 13 16 1016.6 1015.0 0.0
16/08:00pm 26.3 20.4 1.6 20 12.1 SSE 22 30 12 16 1016.3 1014.8 0.0
16/07:30pm 26.8 20.9 2.0 20 12.3 SSE 22 28 12 15 1016.1 1014.6 0.0
16/07:00pm 27.8 22.3 2.1 19 12.8 SE 20 28 11 15 1015.7 1014.2 0.0
16/06:30pm 28.8 22.5 1.3 17 13.6 SSE 24 30 13 16 1015.4 1013.9 0.0
16/06:00pm 30.0 23.4 -0.4 14 14.8 SSE 24 30 13 16 1015.3 1013.8 0.0
16/05:30pm 31.0 23.8 0.4 14 15.2 SSE 28 32 15 17 1015.1 1013.6 0.0
16/05:00pm 32.1 25.3 -2.0 11 16.3 SSE 24 30 13 16 1015.1 1013.6 0.0
16/04:30pm 32.4 25.8 -3.1 10 16.8 S 22 32 12 17 1015.1 1013.6 0.0
16/04:00pm 32.7 26.1 -2.9 10 16.9 SSW 22 32 12 17 1015.2 1013.7 0.0
16/03:30pm 33.3 27.2 -2.4 10 17.1 S 20 32 11 17 1015.2 1013.7 0.0
16/03:00pm 33.1 26.6 -2.6 10 17.1 SSE 22 32 12 17 1015.3 1013.8 0.0
16/02:30pm 33.5 27.8 -1.0 11 17.0 SE 19 37 10 20 1015.5 1014.0 0.0
16/02:00pm 33.3 28.3 -1.1 11 16.9 ESE 15 32 8 17 1016.0 1014.5 0.0
16/01:30pm 31.8 27.2 -1.1 12 16.0 SE 13 24 7 13 1016.6 1015.0 0.0
16/01:00pm 31.4 26.4 3.4 17 14.6 ESE 19 28 10 15 1017.1 1015.6 0.0
16/12:30pm 30.8 26.3 2.1 16 14.6 ESE 15 24 8 13 1017.7 1016.2 0.0
16/12:00pm 29.3 24.8 4.0 20 13.2 ESE 17 24 9 13 1018.3 1016.8 0.0
16/11:30am 28.4 24.2 5.9 24 12.1 ESE 17 26 9 14 1018.9 1017.4 0.0
16/11:00am 27.8 23.8 6.6 26 11.4 E 17 26 9 14 1019.3 1017.8 0.0
16/10:30am 26.0 21.7 7.1 30 10.2 ESE 19 28 10 15 1019.6 1018.1 0.0
16/10:00am 24.5 20.2 7.2 33 9.3 ESE 19 26 10 14 1019.9 1018.4 0.0
16/09:30am 23.5 18.8 7.6 36 8.5 ESE 22 32 12 17 1020.0 1018.5 0.0
16/09:00am 22.3 16.8 7.7 39 7.8 ESE 26 32 14 17 1020.0 1018.5 0.0
16/08:30am 21.7 16.7 7.9 41 7.4 ESE 24 32 13 17 1020.1 1018.6 0.0
16/08:00am 20.7 16.0 7.7 43 6.9 ESE 22 32 12 17 1020.2 1018.7 0.0
16/07:30am 17.8 13.4 2.9 37 7.0 SE 15 20 8 11 1019.8 1018.3 0.0
16/07:00am 15.2 11.3 -1.4 32 7.0 SE 9 11 5 6 1019.4 1017.9 0.0
16/06:30am 13.8 9.8 -2.6 32 6.7 SE 9 11 5 6 1019.0 1017.5 0.0
16/06:00am 12.8 8.5 -5.2 28 6.8 SE 9 13 5 7 1018.6 1017.1 0.0
16/05:30am 13.8 8.7 -4.8 27 7.2 SE 13 15 7 8 1018.2 1016.7 0.0
16/05:00am 15.0 9.9 -9.1 18 8.6 W 11 17 6 9 1017.9 1016.4 0.0
16/04:30am 13.7 8.7 -14.2 13 8.8 W 9 13 5 7 1017.9 1016.4 0.0
16/04:00am 14.0 8.6 -13.9 13 8.8 W 11 13 6 7 1017.8 1016.3 0.0
16/03:30am 14.0 8.9 -14.9 12 9.0 W 9 13 5 7 1017.6 1016.1 0.0
16/03:00am 14.5 9.4 -14.5 12 9.1 WNW 9 11 5 6 1017.3 1015.8 0.0
16/02:30am 13.2 9.3 -17.7 10 8.9 WNW 2 9 1 5 1017.3 1015.8 0.0
16/02:00am 14.0 8.8 -18.3 9 9.3 WNW 9 13 5 7 1016.9 1015.4 0.0
16/01:30am 13.9 8.3 -18.4 9 9.3 WNW 11 19 6 10 1017.1 1015.6 0.0
16/01:00am 15.0 10.2 -17.6 9 9.7 WNW 7 9 4 5 1017.1 1015.6 0.0
16/12:30am 15.4 10.6 -17.3 9 9.9 WNW 7 9 4 5 1017.2 1015.7 0.0
16/12:00am 15.8 11.2 -17.0 9 10.0 WNW 6 7 3 4 1017.3 1015.8 0.0
 
Date/Time
WST
Temp
°C
App
Temp
°C
Dew
Point
°C
Rel
Hum
%
Delta-T
°C
Wind Press
QNH
hPa
Press
MSL
hPa
Rain since
9am
mm
Dir  Spd
km/h
Gust
km/h
Spd
kts
Gust
kts
15/11:30pm 16.3 11.5 -18.0 8 10.3 WNW 7 7 4 4 1017.6 1016.1 0.0
15/11:00pm 16.5 13.0 -17.8 8 10.4 CALM 0 0 0 0 1017.6 1016.1 0.0
15/10:30pm 18.2 13.0 -18.1 7 11.2 WNW 9 11 5 6 1017.7 1016.2 0.0
15/10:00pm 19.5 13.9 -17.2 7 11.7 WNW 11 13 6 7 1017.8 1016.3 0.0
15/09:30pm 20.4 14.5 -16.5 7 12.1 W 13 17 7 9 1018.1 1016.6 0.0
15/09:00pm 20.7 16.0 -18.1 6 12.4 NNW 6 15 3 8 1018.0 1016.5 0.0
15/08:30pm 21.0 15.9 -16.1 7 12.4 N 9 9 5 5 1018.0 1016.5 0.0
15/08:00pm 23.6 18.5 -16.0 6 13.7 N 9 9 5 5 1017.9 1016.4 0.0
15/07:30pm 23.8 18.3 -15.9 6 13.8 WNW 11 13 6 7 1017.8 1016.3 0.0
15/07:00pm 24.6 21.1 -17.5 5 14.3 CALM 0 7 0 4 1017.6 1016.1 0.0
15/06:30pm 28.4 23.8 -17.5 4 16.3 WNW 6 6 3 3 1017.4 1015.9 0.0
15/06:00pm 30.5 25.4 -16.0 4 17.4 WNW 9 9 5 5 1017.1 1015.6 0.0
15/05:30pm 32.5 27.7 -18.1 3 18.7 WNW 7 9 4 5 1016.9 1015.4 0.0
15/05:00pm 33.1 28.5 -17.7 3 19.0 WNW 6 7 3 4 1016.8 1015.2 0.0
15/04:30pm 33.9 28.3 -17.2 3 19.4 NW 11 17 6 9 1016.8 1015.2 0.0
15/04:00pm 34.2 28.6 -17.0 3 19.5 NNW 11 19 6 10 1016.7 1015.1 0.0
15/03:30pm 34.5 29.3 -16.8 3 19.7 N 9 20 5 11 1016.6 1015.0 0.0
15/03:00pm 33.7 28.1 -17.3 3 19.3 NNE 11 17 6 9 1016.7 1015.1 0.0
15/02:30pm 33.8 28.6 -17.2 3 19.3 NNW 9 17 5 9 1016.8 1015.2 0.0
15/02:00pm 33.4 27.4 -17.5 3 19.1 ESE 13 20 7 11 1017.1 1015.6 0.0
15/01:30pm 33.4 28.6 -17.5 3 19.1 NNW 7 19 4 10 1017.6 1016.1 0.0
15/01:00pm 33.1 27.1 -17.7 3 18.9 ENE 13 26 7 14 1018.0 1016.5 0.0
15/12:30pm 33.7 28.1 -17.3 3 19.3 NE 11 19 6 10 1018.4 1016.9 0.0
15/12:29pm 33.1 27.5 -17.7 3 19.0 NE 11 22 6 12 1018.4 1016.9 0.0
15/12:11pm 33.5 26.8 -17.4 3 19.2 SE 17 65 9 35 1018.8 1017.3 0.0
15/12:09pm 34.7 28.8 -16.7 3 19.8 SSE 13 65 7 35 1017.8 1016.3 0.0
15/12:00pm 33.1 27.9 -17.7 3 18.9 W 9 15 5 8 1018.9 1017.4 0.0
15/11:30am 32.9 26.2 -17.8 3 18.9 NNW 17 24 9 13 1019.3 1017.8 0.0
15/11:00am 32.0 26.8 -18.4 3 18.4 N 9 19 5 10 1019.6 1018.1 0.0
15/10:30am 31.4 26.3 -15.4 4 17.8 SSW 9 19 5 10 1020.0 1018.5 0.0
15/10:00am 29.6 25.1 -14.0 5 16.6 NW 6 9 3 5 1020.4 1019.0 0.0
15/09:30am 27.3 22.8 -15.6 5 15.6 NW 6 9 3 5 1020.9 1019.4 0.0
15/09:00am 25.0 20.5 -15.0 6 14.3 NW 6 7 3 4 1021.1 1019.6 0.0
15/08:30am 22.6 19.2 -14.9 7 13.1 CALM 0 0 0 0 1021.1 1019.6 0.0
15/08:00am 20.0 15.5 -15.2 8 11.8 NW 6 7 3 4 1021.1 1019.6 0.0
15/07:30am 17.1 13.7 -16.0 9 10.5 CALM 0 0 0 0 1020.9 1019.4 0.0

Other formats

Comma delimited format used in spreadsheet applications
http://www.bom.gov.au/fwo/IDW60801/IDW60801.95439.axf

JavaScript Object Notation format (JSON) in row-major order
http://www.bom.gov.au/fwo/IDW60801/IDW60801.95439.json

Data quality

Most of these data are generated automatically and are frequently updated. Quality checks on data are not normally performed. It is possible for incorrect values to appear. Refer to information at About Latest Weather Observations and please check the disclaimer before using these data.